Time;durP1;ratioP1;P1;durP2;ratioP2;P2;SDS_P1;SDS_P2;PMS_P1;PMS_P2;Temp;Humidity;BMP_temperature;BMP_pressure;BME280_temperature;BME280_humidity;BME280_pressure;Samples;Min_cycle;Max_cycle;Signal;HPM_P1;HPM_P2
2023/01/18 00:01:35;;;;;;;;;;;;;;;;;;4179181;28;20321;-38
2023/01/18 00:03:37;;;;;;;;;;;;;;;;;;4185643;28;19921;-39
2023/01/18 00:05:39;;;;;;;;;;;;;;;;;;4194374;28;19924;-38
2023/01/18 00:07:40;;;;;;;;;;;;;;;;;;4162868;28;19921;-39
2023/01/18 00:09:42;;;;;;;;;;;;;;;;;;4189005;28;19921;-37
2023/01/18 00:11:43;;;;;;;;;;;;;;;;;;4182069;28;19951;-38
2023/01/18 00:13:44;;;;;;;;;;;;;;;;;;4199655;28;19920;-34
2023/01/18 00:15:46;;;;;;;;;;;;;;;;;;4183333;28;19920;-37
2023/01/18 00:17:50;;;;;;;;;;;;;;;;;;4203120;28;20015;-37
2023/01/18 00:19:51;;;;;;;;;;;;;;;;;;4213498;28;19924;-37
2023/01/18 00:21:53;;;;;;;;;;;;;;;;;;4195405;28;19958;-37
2023/01/18 00:23:54;;;;;;;;;;;;;;;;;;4201809;28;19920;-37
2023/01/18 00:25:59;;;;;;;;;;;;;;;;;;4204972;28;19927;-38
2023/01/18 00:28:00;;;;;;;;;;;;;;;;;;4196461;28;19970;-37
2023/01/18 00:30:02;;;;;;;;;;;;;;;;;;4197130;28;19950;-37
2023/01/18 00:32:04;;;;;;;;;;;;;;;;;;4208964;28;19932;-38
2023/01/18 00:34:05;;;;;;;;;;;;;;;;;;4196402;28;19974;-37
2023/01/18 00:36:06;;;;;;;;;;;;;;;;;;4207393;28;20351;-38
2023/01/18 00:38:09;;;;;;;;;;;;;;;;;;4199079;28;20376;-38
2023/01/18 00:40:10;;;;;;;;;;;;;;;;;;4212609;28;19924;-37
2023/01/18 00:44:31;;;;;;;;;;;;;;;;;;4196316;28;19935;-36
2023/01/18 00:46:32;;;;;;;;;;;;;;;;;;4209799;28;19920;-37
2023/01/18 00:48:34;;;;;;;;;;;;;;;;;;4178738;28;19931;-38
2023/01/18 00:50:34;;;;;;;;;;;;;;;;;;4196736;28;19921;-38
2023/01/18 00:52:36;;;;;;;;;;;;;;;;;;4178318;28;20375;-37
2023/01/18 00:54:37;;;;;;;;;;;;;;;;;;4192648;28;20386;-37
2023/01/18 00:56:38;;;;;;;;;;;;;;;;;;4182354;28;19920;-38
2023/01/18 00:58:39;;;;;;;;;;;;;;;;;;4195257;28;19931;-37
2023/01/18 01:00:40;;;;;;;;;;;;;;;;;;4212574;28;20432;-38
2023/01/18 01:02:41;;;;;;;;;;;;;;;;;;4199305;28;19982;-37
2023/01/18 01:07:02;;;;;;;;;;;;;;;;;;4187067;28;19965;-37
2023/01/18 01:09:03;;;;;;;;;;;;;;;;;;4212105;28;19920;-36
2023/01/18 01:11:09;;;;;;;;;;;;;;;;;;4202760;28;19920;-38
2023/01/18 01:27:10;;;;;;;;;;;;;;;;;;4203042;28;19924;-38
2023/01/18 01:29:11;;;;;;;;;;;;;;;;;;4202158;28;19921;-37
2023/01/18 01:31:13;;;;;;;;;;;;;;;;;;4196053;28;19924;-38
2023/01/18 01:33:16;;;;;;;;;;;;;;;;;;4196013;28;19921;-38
2023/01/18 01:35:17;;;;;;;;;;;;;;;;;;4177979;28;19925;-38
2023/01/18 01:37:18;;;;;;;;;;;;;;;;;;4196180;28;19927;-37
2023/01/18 01:39:19;;;;;;;;;;;;;;;;;;4195716;28;20236;-38
2023/01/18 01:41:25;;;;;;;;;;;;;;;;;;4211368;28;20348;-37
2023/01/18 01:43:36;;;;;;;;;;;;;;;;;;4212573;28;20221;-37
2023/01/18 01:45:37;;;;;;;;;;;;;;;;;;4182432;28;19966;-38
2023/01/18 01:47:39;;;;;;;;;;;;;;;;;;4192773;28;19936;-37
2023/01/18 01:49:44;;;;;;;;;;;;;;;;;;4189833;28;20331;-38
2023/01/18 01:51:53;;;;;;;;;;;;;;;;;;4195918;28;19920;-36
2023/01/18 01:53:54;;;;;;;;;;;;;;;;;;4190371;28;19966;-37
2023/01/18 01:55:55;;;;;;;;;;;;;;;;;;4182957;28;19921;-37
2023/01/18 01:57:57;;;;;;;;;;;;;;;;;;4212464;28;19920;-37
2023/01/18 01:59:59;;;;;;;;;;;;;;;;;;4169274;28;20475;-37
2023/01/18 02:02:02;;;;;;;;;;;;;;;;;;4191114;28;19931;-37
2023/01/18 02:04:03;;;;;;;;;;;;;;;;;;4192472;28;19920;-37
2023/01/18 02:06:11;;;;;;;;;;;;;;;;;;4212222;28;20379;-38
2023/01/18 02:08:20;;;;;;;;;;;;;;;;;;4177907;28;20351;-37
2023/01/18 02:10:22;;;;;;;;;;;;;;;;;;4195083;28;20433;-38
2023/01/18 02:12:23;;;;;;;;;;;;;;;;;;4197943;28;20376;-37
2023/01/18 02:14:24;;;;;;;;;;;;;;;;;;4188726;28;19924;-37
2023/01/18 02:16:25;;;;;;;;;;;;;;;;;;4204410;28;20327;-38
2023/01/18 02:18:46;;;;;;;;;;;;;;;;;;4212218;28;19920;-37
2023/01/18 02:20:50;;;;;;;;;;;;;;;;;;4182783;28;19943;-39
2023/01/18 02:23:03;;;;;;;;;;;;;;;;;;4206195;28;19931;-37
2023/01/18 02:25:04;;;;;;;;;;;;;;;;;;4214253;28;20425;-37
2023/01/18 02:27:28;;;;;;;;;;;;;;;;;;4211259;28;19925;-38
2023/01/18 02:29:32;;;;;;;;;;;;;;;;;;4171009;28;19943;-38
2023/01/18 02:31:34;;;;;;;;;;;;;;;;;;4196974;28;19920;-37
2023/01/18 02:33:35;;;;;;;;;;;;;;;;;;4211616;28;20268;-38
2023/01/18 02:35:43;;;;;;;;;;;;;;;;;;4204713;28;19927;-38
2023/01/18 02:37:48;;;;;;;;;;;;;;;;;;4186455;28;19996;-37
2023/01/18 02:39:57;;;;;;;;;;;;;;;;;;4193219;28;19931;-37
2023/01/18 02:46:45;;;;;;;;;;;;;;;;;;4179452;28;19921;-38
2023/01/18 02:48:46;;;;;;;;;;;;;;;;;;4187175;28;19924;-38
2023/01/18 02:50:48;;;;;;;;;;;;;;;;;;4180440;28;19948;-38
2023/01/18 02:52:50;;;;;;;;;;;;;;;;;;4211462;28;19920;-36
2023/01/18 02:54:51;;;;;;;;;;;;;;;;;;4212608;28;19928;-36
2023/01/18 02:56:53;;;;;;;;;;;;;;;;;;4196821;28;20015;-37
2023/01/18 02:58:57;;;;;;;;;;;;;;;;;;4205465;28;19921;-37
2023/01/18 03:00:58;;;;;;;;;;;;;;;;;;4197945;28;19924;-37
2023/01/18 03:03:00;;;;;;;;;;;;;;;;;;4199704;28;20372;-38
2023/01/18 03:05:00;;;;;;;;;;;;;;;;;;4213099;28;20031;-38
2023/01/18 03:07:10;;;;;;;;;;;;;;;;;;4179556;28;20308;-38
2023/01/18 03:09:20;;;;;;;;;;;;;;;;;;4179485;28;20345;-37
2023/01/18 03:11:33;;;;;;;;;;;;;;;;;;4181224;28;20421;-37
2023/01/18 03:13:40;;;;;;;;;;;;;;;;;;4184918;28;19920;-37
2023/01/18 03:15:44;;;;;;;;;;;;;;;;;;4179746;28;20222;-38
2023/01/18 03:17:52;;;;;;;;;;;;;;;;;;4208533;28;19920;-37
2023/01/18 03:20:08;;;;;;;;;;;;;;;;;;4179487;28;19921;-38
2023/01/18 03:22:10;;;;;;;;;;;;;;;;;;4198475;28;19920;-38
2023/01/18 03:24:11;;;;;;;;;;;;;;;;;;4204056;28;19981;-37
2023/01/18 03:26:15;;;;;;;;;;;;;;;;;;4197864;28;19944;-37
2023/01/18 03:35:18;;;;;;;;;;;;;;;;;;4172077;28;19920;-38
2023/01/18 03:37:25;;;;;;;;;;;;;;;;;;4196354;28;19932;-38
2023/01/18 03:39:33;;;;;;;;;;;;;;;;;;4195442;28;19950;-38
2023/01/18 03:41:35;;;;;;;;;;;;;;;;;;4179672;28;19928;-37
2023/01/18 03:43:37;;;;;;;;;;;;;;;;;;4195877;28;19920;-37
2023/01/18 03:45:38;;;;;;;;;;;;;;;;;;4183843;28;20035;-38
2023/01/18 03:47:40;;;;;;;;;;;;;;;;;;4179108;28;20597;-37
2023/01/18 03:49:41;;;;;;;;;;;;;;;;;;4196984;28;19981;-36
2023/01/18 03:51:57;;;;;;;;;;;;;;;;;;4205356;28;19967;-37
2023/01/18 03:54:01;;;;;;;;;;;;;;;;;;4213799;28;19920;-38
2023/01/18 03:56:08;;;;;;;;;;;;;;;;;;4197239;28;19920;-38
2023/01/18 03:58:10;;;;;;;;;;;;;;;;;;4195707;28;19920;-37
2023/01/18 04:00:11;;;;;;;;;;;;;;;;;;4195727;28;19924;-37
2023/01/18 04:02:15;;;;;;;;;;;;;;;;;;4182050;28;19925;-37
2023/01/18 04:04:16;;;;;;;;;;;;;;;;;;4182486;28;19924;-37
2023/01/18 04:06:21;;;;;;;;;;;;;;;;;;4207521;28;19978;-38
2023/01/18 04:08:23;;;;;;;;;;;;;;;;;;4179640;28;19971;-38
2023/01/18 04:10:25;;;;;;;;;;;;;;;;;;4195876;28;19924;-37
2023/01/18 04:12:27;;;;;;;;;;;;;;;;;;4162253;28;19928;-38
2023/01/18 04:14:27;;;;;;;;;;;;;;;;;;4196732;28;19947;-38
2023/01/18 04:16:28;;;;;;;;;;;;;;;;;;4195339;28;19947;-36
2023/01/18 04:18:29;;;;;;;;;;;;;;;;;;4209242;28;19920;-38
2023/01/18 04:20:30;;;;;;;;;;;;;;;;;;4199165;28;20304;-37
2023/01/18 04:22:31;;;;;;;;;;;;;;;;;;4178878;28;20387;-37
2023/01/18 04:24:32;;;;;;;;;;;;;;;;;;4202611;28;19920;-38
2023/01/18 04:26:34;;;;;;;;;;;;;;;;;;4209950;28;19920;-37
2023/01/18 04:28:35;;;;;;;;;;;;;;;;;;4213089;28;19928;-38
2023/01/18 04:30:36;;;;;;;;;;;;;;;;;;4206935;28;19924;-37
2023/01/18 04:32:38;;;;;;;;;;;;;;;;;;4178781;28;19974;-37
2023/01/18 04:34:39;;;;;;;;;;;;;;;;;;4208841;28;20448;-36
2023/01/18 04:36:40;;;;;;;;;;;;;;;;;;4197368;28;19936;-38
2023/01/18 04:38:41;;;;;;;;;;;;;;;;;;4196391;28;19987;-37
2023/01/18 04:40:42;;;;;;;;;;;;;;;;;;4204432;28;19924;-38
2023/01/18 04:42:43;;;;;;;;;;;;;;;;;;4202073;28;20012;-38
2023/01/18 04:44:45;;;;;;;;;;;;;;;;;;4174628;28;19947;-37
2023/01/18 04:46:46;;;;;;;;;;;;;;;;;;4200378;28;19920;-38
2023/01/18 04:48:50;;;;;;;;;;;;;;;;;;4213027;28;19920;-38
2023/01/18 04:50:51;;;;;;;;;;;;;;;;;;4202428;28;19924;-37
2023/01/18 04:52:52;;;;;;;;;;;;;;;;;;4210111;28;19962;-38
2023/01/18 04:54:54;;;;;;;;;;;;;;;;;;4168916;28;19943;-37
2023/01/18 04:56:55;;;;;;;;;;;;;;;;;;4212936;28;20015;-37
2023/01/18 04:58:56;;;;;;;;;;;;;;;;;;4185639;28;20058;-38
2023/01/18 05:00:59;;;;;;;;;;;;;;;;;;4195991;28;19928;-38
2023/01/18 05:03:00;;;;;;;;;;;;;;;;;;4210008;28;19992;-37
2023/01/18 05:05:03;;;;;;;;;;;;;;;;;;4182871;28;20029;-37
2023/01/18 05:07:04;;;;;;;;;;;;;;;;;;4196070;28;20379;-38
2023/01/18 05:09:06;;;;;;;;;;;;;;;;;;4202788;28;19920;-37
2023/01/18 05:11:09;;;;;;;;;;;;;;;;;;4202583;28;19920;-38
2023/01/18 05:13:10;;;;;;;;;;;;;;;;;;4209848;28;19927;-38
2023/01/18 05:15:11;;;;;;;;;;;;;;;;;;4183724;28;19928;-37
2023/01/18 05:17:12;;;;;;;;;;;;;;;;;;4202393;28;19973;-37
2023/01/18 05:19:14;;;;;;;;;;;;;;;;;;4207770;28;19924;-38
2023/01/18 05:21:15;;;;;;;;;;;;;;;;;;4196193;28;19920;-37
2023/01/18 05:23:16;;;;;;;;;;;;;;;;;;4211624;28;19920;-38
2023/01/18 05:25:17;;;;;;;;;;;;;;;;;;4177625;28;19967;-37
2023/01/18 05:27:18;;;;;;;;;;;;;;;;;;4194819;28;19936;-38
2023/01/18 05:29:19;;;;;;;;;;;;;;;;;;4194438;28;19925;-37
2023/01/18 05:31:21;;;;;;;;;;;;;;;;;;4212291;28;19923;-36
2023/01/18 05:33:22;;;;;;;;;;;;;;;;;;4208595;28;20315;-37
2023/01/18 05:35:23;;;;;;;;;;;;;;;;;;4187460;28;19920;-37
2023/01/18 05:37:24;;;;;;;;;;;;;;;;;;4200032;28;20326;-37
2023/01/18 05:39:25;;;;;;;;;;;;;;;;;;4212072;28;19919;-38
2023/01/18 05:41:26;;;;;;;;;;;;;;;;;;4191469;28;19991;-37
2023/01/18 05:43:27;;;;;;;;;;;;;;;;;;4195955;28;19920;-37
2023/01/18 05:45:28;;;;;;;;;;;;;;;;;;4196081;28;19920;-37
2023/01/18 05:47:30;;;;;;;;;;;;;;;;;;4195411;28;19982;-38
2023/01/18 05:49:31;;;;;;;;;;;;;;;;;;4195917;28;20334;-37
2023/01/18 05:51:32;;;;;;;;;;;;;;;;;;4195901;28;19924;-37
2023/01/18 05:53:33;;;;;;;;;;;;;;;;;;4205386;28;19920;-37
2023/01/18 05:55:34;;;;;;;;;;;;;;;;;;4202116;28;19965;-37
2023/01/18 05:57:35;;;;;;;;;;;;;;;;;;4211785;28;19927;-38
2023/01/18 05:59:37;;;;;;;;;;;;;;;;;;4204595;28;19919;-37
2023/01/18 06:01:38;;;;;;;;;;;;;;;;;;4196765;28;20398;-37
2023/01/18 06:03:39;;;;;;;;;;;;;;;;;;4196682;28;19975;-37
2023/01/18 06:05:40;;;;;;;;;;;;;;;;;;4179678;28;20343;-37
2023/01/18 06:07:41;;;;;;;;;;;;;;;;;;4209552;28;19924;-38
2023/01/18 06:09:42;;;;;;;;;;;;;;;;;;4194848;28;19925;-37
2023/01/18 06:11:43;;;;;;;;;;;;;;;;;;4207137;28;19977;-37
2023/01/18 06:13:44;;;;;;;;;;;;;;;;;;4213119;28;20360;-36
2023/01/18 06:15:46;;;;;;;;;;;;;;;;;;4209934;28;19924;-37
2023/01/18 06:17:46;;;;;;;;;;;;;;;;;;4196637;28;19920;-37
2023/01/18 06:19:47;;;;;;;;;;;;;;;;;;4205931;28;19931;-37
2023/01/18 06:21:49;;;;;;;;;;;;;;;;;;4213134;28;19920;-38
2023/01/18 06:23:50;;;;;;;;;;;;;;;;;;4208507;28;19928;-37
2023/01/18 06:25:51;;;;;;;;;;;;;;;;;;4203148;28;20325;-36
2023/01/18 06:27:53;;;;;;;;;;;;;;;;;;4212973;28;19920;-37
2023/01/18 06:29:54;;;;;;;;;;;;;;;;;;4199050;28;19924;-36
2023/01/18 06:31:55;;;;;;;;;;;;;;;;;;4212962;28;19920;-37
2023/01/18 06:33:56;;;;;;;;;;;;;;;;;;4194758;28;20360;-37
2023/01/18 06:35:58;;;;;;;;;;;;;;;;;;4194905;28;19928;-37
2023/01/18 06:38:00;;;;;;;;;;;;;;;;;;4212661;28;19920;-37
2023/01/18 06:40:01;;;;;;;;;;;;;;;;;;4194063;28;19995;-36
2023/01/18 06:42:02;;;;;;;;;;;;;;;;;;4207540;28;20230;-37
2023/01/18 06:44:03;;;;;;;;;;;;;;;;;;4204765;28;19930;-36
2023/01/18 06:46:08;;;;;;;;;;;;;;;;;;4212861;28;19924;-37
2023/01/18 06:48:09;;;;;;;;;;;;;;;;;;4196923;28;20302;-36
2023/01/18 06:50:10;;;;;;;;;;;;;;;;;;4178091;28;20202;-37
2023/01/18 06:52:12;;;;;;;;;;;;;;;;;;4204169;28;20061;-38
2023/01/18 06:54:15;;;;;;;;;;;;;;;;;;4194311;28;19928;-36
2023/01/18 06:56:16;;;;;;;;;;;;;;;;;;4192872;28;19950;-37
2023/01/18 06:58:18;;;;;;;;;;;;;;;;;;4212435;28;20268;-37
2023/01/18 07:00:19;;;;;;;;;;;;;;;;;;4178101;28;19925;-37
2023/01/18 07:02:20;;;;;;;;;;;;;;;;;;4205791;28;20458;-37
2023/01/18 07:04:22;;;;;;;;;;;;;;;;;;4199004;28;19951;-37
2023/01/18 07:06:23;;;;;;;;;;;;;;;;;;4190930;28;19966;-37
2023/01/18 07:08:25;;;;;;;;;;;;;;;;;;4209920;28;19949;-37
2023/01/18 07:10:26;;;;;;;;;;;;;;;;;;4211694;28;19931;-37
2023/01/18 07:12:27;;;;;;;;;;;;;;;;;;4211775;28;19934;-37
2023/01/18 07:14:28;;;;;;;;;;;;;;;;;;4201310;28;20084;-37
2023/01/18 07:16:29;;;;;;;;;;;;;;;;;;4209296;28;19930;-37
2023/01/18 07:18:30;;;;;;;;;;;;;;;;;;4211982;28;20341;-37
2023/01/18 07:20:31;;;;;;;;;;;;;;;;;;4205233;28;19939;-36
2023/01/18 07:22:33;;;;;;;;;;;;;;;;;;4195626;28;20391;-36
2023/01/18 07:24:34;;;;;;;;;;;;;;;;;;4189470;28;20024;-37
2023/01/18 07:26:35;;;;;;;;;;;;;;;;;;4212025;28;19924;-37
2023/01/18 07:28:37;;;;;;;;;;;;;;;;;;4212305;28;20535;-37
2023/01/18 07:30:38;;;;;;;;;;;;;;;;;;4202761;28;20415;-37
2023/01/18 07:32:43;;;;;;;;;;;;;;;;;;4207384;28;19923;-37
2023/01/18 07:34:44;;;;;;;;;;;;;;;;;;4211280;28;19920;-37
2023/01/18 07:36:46;;;;;;;;;;;;;;;;;;4188489;28;20482;-36
2023/01/18 07:38:47;;;;;;;;;;;;;;;;;;4203038;28;19920;-37
2023/01/18 07:40:49;;;;;;;;;;;;;;;;;;4199914;28;20398;-37
2023/01/18 07:42:56;;;;;;;;;;;;;;;;;;4179495;28;19924;-36
2023/01/18 07:44:58;;;;;;;;;;;;;;;;;;4187036;28;20000;-37
2023/01/18 07:46:59;;;;;;;;;;;;;;;;;;4195116;28;19978;-38
2023/01/18 07:49:04;;;;;;;;;;;;;;;;;;4194693;28;19920;-36
2023/01/18 07:51:06;;;;;;;;;;;;;;;;;;4211228;28;20260;-37
2023/01/18 07:53:08;;;;;;;;;;;;;;;;;;4206042;28;19982;-37
2023/01/18 07:55:09;;;;;;;;;;;;;;;;;;4204552;28;19924;-37
2023/01/18 07:57:10;;;;;;;;;;;;;;;;;;4207419;28;20033;-37
2023/01/18 07:59:11;;;;;;;;;;;;;;;;;;4210876;28;19928;-37
2023/01/18 08:01:13;;;;;;;;;;;;;;;;;;4211376;28;20011;-37
2023/01/18 08:03:16;;;;;;;;;;;;;;;;;;4202708;28;19946;-37
2023/01/18 08:05:20;;;;;;;;;;;;;;;;;;4206169;28;19923;-37
2023/01/18 08:07:21;;;;;;;;;;;;;;;;;;4193296;28;19975;-37
2023/01/18 08:09:22;;;;;;;;;;;;;;;;;;4187733;28;20560;-37
2023/01/18 08:11:23;;;;;;;;;;;;;;;;;;4188084;28;19986;-37
2023/01/18 08:13:25;;;;;;;;;;;;;;;;;;4188821;28;19920;-38
2023/01/18 08:15:26;;;;;;;;;;;;;;;;;;4193606;28;19927;-37
2023/01/18 08:17:28;;;;;;;;;;;;;;;;;;4181716;28;19920;-37
2023/01/18 08:19:29;;;;;;;;;;;;;;;;;;4193741;28;19920;-37
2023/01/18 08:21:32;;;;;;;;;;;;;;;;;;4194153;28;19928;-37
2023/01/18 08:23:33;;;;;;;;;;;;;;;;;;4193624;28;19989;-36
2023/01/18 08:25:34;;;;;;;;;;;;;;;;;;4175436;28;19971;-36
2023/01/18 08:27:35;;;;;;;;;;;;;;;;;;4194163;28;20363;-37
2023/01/18 08:29:36;;;;;;;;;;;;;;;;;;4194015;28;19924;-36
2023/01/18 08:31:37;;;;;;;;;;;;;;;;;;4161915;28;19999;-37
2023/01/18 08:33:40;;;;;;;;;;;;;;;;;;4181549;28;19928;-36
2023/01/18 08:35:44;;;;;;;;;;;;;;;;;;4169258;28;19940;-36
2023/01/18 08:37:45;;;;;;;;;;;;;;;;;;4177303;28;20349;-36
2023/01/18 08:39:46;;;;;;;;;;;;;;;;;;4190718;28;20303;-37
2023/01/18 08:41:48;;;;;;;;;;;;;;;;;;4176202;28;20011;-37
2023/01/18 08:43:49;;;;;;;;;;;;;;;;;;4187493;28;20303;-37
2023/01/18 08:45:50;;;;;;;;;;;;;;;;;;4177488;28;20231;-37
2023/01/18 08:47:55;;;;;;;;;;;;;;;;;;4177316;28;20351;-37
2023/01/18 08:49:57;;;;;;;;;;;;;;;;;;4158635;28;20392;-38
2023/01/18 08:51:58;;;;;;;;;;;;;;;;;;4183054;28;19925;-37
2023/01/18 08:53:59;;;;;;;;;;;;;;;;;;4166653;28;19925;-35
2023/01/18 08:56:05;;;;;;;;;;;;;;;;;;4189438;28;19928;-37
2023/01/18 08:58:06;;;;;;;;;;;;;;;;;;4190999;28;20392;-37
2023/01/18 09:00:08;;;;;;;;;;;;;;;;;;4177122;28;20007;-37
2023/01/18 09:02:10;;;;;;;;;;;;;;;;;;4177045;28;20201;-37
2023/01/18 09:04:11;;;;;;;;;;;;;;;;;;4176942;28;19928;-36
2023/01/18 09:06:12;;;;;;;;;;;;;;;;;;4153132;28;19925;-37
2023/01/18 09:08:14;;;;;;;;;;;;;;;;;;4180194;28;19978;-37
2023/01/18 09:10:15;;;;;;;;;;;;;;;;;;4179431;28;19925;-37
2023/01/18 09:12:16;;;;;;;;;;;;;;;;;;4198434;28;20281;-37
2023/01/18 09:14:17;;;;;;;;;;;;;;;;;;4202995;28;19949;-37
2023/01/18 09:16:19;;;;;;;;;;;;;;;;;;4197801;28;19927;-37
2023/01/18 09:18:19;;;;;;;;;;;;;;;;;;4209121;28;20290;-37
2023/01/18 09:20:21;;;;;;;;;;;;;;;;;;4205152;28;19928;-37
2023/01/18 09:22:23;;;;;;;;;;;;;;;;;;4159077;28;19921;-37
2023/01/18 09:24:24;;;;;;;;;;;;;;;;;;4199290;28;19979;-37
2023/01/18 09:26:26;;;;;;;;;;;;;;;;;;4196482;28;20156;-37
2023/01/18 09:28:27;;;;;;;;;;;;;;;;;;4210111;28;19927;-37
2023/01/18 09:30:29;;;;;;;;;;;;;;;;;;4203568;28;20253;-37
2023/01/18 09:32:30;;;;;;;;;;;;;;;;;;4178959;28;19928;-37
2023/01/18 09:34:31;;;;;;;;;;;;;;;;;;4196264;28;20364;-35
2023/01/18 09:36:32;;;;;;;;;;;;;;;;;;4196362;28;19924;-36
2023/01/18 09:38:35;;;;;;;;;;;;;;;;;;4196748;28;19967;-36
2023/01/18 09:40:43;;;;;;;;;;;;;;;;;;4195960;28;19924;-35
2023/01/18 09:42:44;;;;;;;;;;;;;;;;;;4208373;28;19920;-35
2023/01/18 09:44:47;;;;;;;;;;;;;;;;;;4201494;28;20012;-36
2023/01/18 09:46:50;;;;;;;;;;;;;;;;;;4204884;28;19928;-36
2023/01/18 09:48:53;;;;;;;;;;;;;;;;;;4183495;28;19932;-36
2023/01/18 09:50:54;;;;;;;;;;;;;;;;;;4192070;28;19981;-36
2023/01/18 09:52:56;;;;;;;;;;;;;;;;;;4199649;28;20336;-35
2023/01/18 09:55:03;;;;;;;;;;;;;;;;;;4188320;28;19924;-35
2023/01/18 09:57:10;;;;;;;;;;;;;;;;;;4206820;28;19924;-35
2023/01/18 09:59:25;;;;;;;;;;;;;;;;;;4177570;28;20327;-35
2023/01/18 10:01:27;;;;;;;;;;;;;;;;;;4177314;28;19932;-36
2023/01/18 10:03:31;;;;;;;;;;;;;;;;;;4205503;28;19924;-36
2023/01/18 10:05:34;;;;;;;;;;;;;;;;;;4181168;28;19931;-36
2023/01/18 10:07:36;;;;;;;;;;;;;;;;;;4186521;28;19932;-36
2023/01/18 10:09:38;;;;;;;;;;;;;;;;;;4201986;28;19965;-36
2023/01/18 10:11:46;;;;;;;;;;;;;;;;;;4163497;28;19932;-36
2023/01/18 10:14:02;;;;;;;;;;;;;;;;;;4178839;28;20295;-36
2023/01/18 10:16:07;;;;;;;;;;;;;;;;;;4184059;28;19924;-36
2023/01/18 10:18:08;;;;;;;;;;;;;;;;;;4184788;28;20380;-36
2023/01/18 10:20:27;;;;;;;;;;;;;;;;;;4191354;28;19967;-36
2023/01/18 10:22:30;;;;;;;;;;;;;;;;;;4201216;28;19924;-36
2023/01/18 10:24:38;;;;;;;;;;;;;;;;;;4174726;28;20430;-36
2023/01/18 10:26:40;;;;;;;;;;;;;;;;;;4180780;28;19924;-36
2023/01/18 10:28:57;;;;;;;;;;;;;;;;;;4177247;28;19961;-35
2023/01/18 10:31:02;;;;;;;;;;;;;;;;;;4196618;28;19924;-36
2023/01/18 10:33:12;;;;;;;;;;;;;;;;;;4179183;28;19925;-36
2023/01/18 10:35:22;;;;;;;;;;;;;;;;;;4182641;28;19928;-36
2023/01/18 10:37:34;;;;;;;;;;;;;;;;;;4200467;28;19928;-36
2023/01/18 10:39:37;;;;;;;;;;;;;;;;;;4183463;28;19928;-36
2023/01/18 10:41:40;;;;;;;;;;;;;;;;;;4191867;28;20432;-36
2023/01/18 10:43:43;;;;;;;;;;;;;;;;;;4188778;28;19928;-35
2023/01/18 10:45:44;;;;;;;;;;;;;;;;;;4196784;28;19973;-36
2023/01/18 10:47:49;;;;;;;;;;;;;;;;;;4194880;28;19924;-39
2023/01/18 10:49:51;;;;;;;;;;;;;;;;;;4196957;28;20295;-41
2023/01/18 10:51:52;;;;;;;;;;;;;;;;;;4175458;28;20436;-41
2023/01/18 10:53:53;;;;;;;;;;;;;;;;;;4197656;28;19931;-41
2023/01/18 10:55:55;;;;;;;;;;;;;;;;;;4190537;28;20307;-40
2023/01/18 10:57:56;;;;;;;;;;;;;;;;;;4180265;28;19971;-41
2023/01/18 10:59:58;;;;;;;;;;;;;;;;;;4184697;28;19981;-41
2023/01/18 11:01:59;;;;;;;;;;;;;;;;;;4191405;28;20383;-40
2023/01/18 11:04:07;;;;;;;;;;;;;;;;;;4187582;28;19973;-39
2023/01/18 11:06:09;;;;;;;;;;;;;;;;;;4173850;28;19921;-41
2023/01/18 11:08:30;;;;;;;;;;;;;;;;;;4194992;28;20295;-41
2023/01/18 11:10:31;;;;;;;;;;;;;;;;;;4183261;28;19986;-45
2023/01/18 11:12:32;;;;;;;;;;;;;;;;;;4192969;28;19990;-46
2023/01/18 11:14:33;;;;;;;;;;;;;;;;;;4192255;28;19920;-46
2023/01/18 11:16:41;;;;;;;;;;;;;;;;;;4194937;28;19930;-49
2023/01/18 11:19:02;;;;;;;;;;;;;;;;;;4190211;28;19925;-46
2023/01/18 11:21:07;;;;;;;;;;;;;;;;;;4192670;28;19932;-45
2023/01/18 11:23:08;;;;;;;;;;;;;;;;;;4189619;28;19924;-46
2023/01/18 11:25:16;;;;;;;;;;;;;;;;;;4190932;28;20058;-49
2023/01/18 11:27:22;;;;;;;;;;;;;;;;;;4189057;28;19925;-52
2023/01/18 11:29:27;;;;;;;;;;;;;;;;;;4191872;28;19980;-48
2023/01/18 11:31:29;;;;;;;;;;;;;;;;;;4190518;28;20370;-48
2023/01/18 11:33:30;;;;;;;;;;;;;;;;;;4192279;28;19920;-52
2023/01/18 11:35:35;;;;;;;;;;;;;;;;;;4175201;28;19961;-44
2023/01/18 11:37:37;;;;;;;;;;;;;;;;;;4174830;28;19924;-50
2023/01/18 11:39:38;;;;;;;;;;;;;;;;;;4168094;28;19929;-48
2023/01/18 11:41:40;;;;;;;;;;;;;;;;;;4191018;28;19928;-52
2023/01/18 11:43:43;;;;;;;;;;;;;;;;;;4192241;28;20322;-49
2023/01/18 11:46:03;;;;;;;;;;;;;;;;;;4192416;28;19992;-47
2023/01/18 11:48:09;;;;;;;;;;;;;;;;;;4171911;28;19924;-49
2023/01/18 11:50:16;;;;;;;;;;;;;;;;;;4172706;28;19932;-47
2023/01/18 11:52:30;;;;;;;;;;;;;;;;;;4191687;28;20217;-49
2023/01/18 11:54:35;;;;;;;;;;;;;;;;;;4189375;28;20276;-49
2023/01/18 11:56:39;;;;;;;;;;;;;;;;;;4173042;28;19921;-50
2023/01/18 11:58:40;;;;;;;;;;;;;;;;;;4173826;28;20397;-52
2023/01/18 12:00:44;;;;;;;;;;;;;;;;;;4191648;28;19982;-46
2023/01/18 12:03:02;;;;;;;;;;;;;;;;;;4174837;28;19971;-50
2023/01/18 12:05:24;;;;;;;;;;;;;;;;;;4174068;28;20403;-46
2023/01/18 12:07:31;;;;;;;;;;;;;;;;;;4193576;28;19956;-52
2023/01/18 12:09:35;;;;;;;;;;;;;;;;;;4195102;28;19924;-48
2023/01/18 12:11:39;;;;;;;;;;;;;;;;;;4191160;28;19920;-44
2023/01/18 12:13:42;;;;;;;;;;;;;;;;;;4192359;28;19935;-44
2023/01/18 12:15:46;;;;;;;;;;;;;;;;;;4187700;28;19982;-44
2023/01/18 12:18:06;;;;;;;;;;;;;;;;;;4191059;28;19997;-46
2023/01/18 12:20:18;;;;;;;;;;;;;;;;;;4191195;28;20390;-43
2023/01/18 12:22:41;;;;;;;;;;;;;;;;;;4190854;28;19943;-45
2023/01/18 12:24:54;;;;;;;;;;;;;;;;;;4189444;28;19920;-43
2023/01/18 12:26:56;;;;;;;;;;;;;;;;;;4208663;28;21164;-48
2023/01/18 12:29:05;;;;;;;;;;;;;;;;;;4175865;28;20076;-44
2023/01/18 12:31:06;;;;;;;;;;;;;;;;;;4175279;28;19972;-42
2023/01/18 12:33:23;;;;;;;;;;;;;;;;;;4193827;28;20041;-48
2023/01/18 12:35:42;;;;;;;;;;;;;;;;;;4192356;28;19998;-41
2023/01/18 12:37:45;;;;;;;;;;;;;;;;;;4186665;28;19924;-43
2023/01/18 12:39:48;;;;;;;;;;;;;;;;;;4169099;28;19925;-46
2023/01/18 12:41:54;;;;;;;;;;;;;;;;;;4190368;28;19920;-44
2023/01/18 12:44:14;;;;;;;;;;;;;;;;;;4170776;28;19931;-45
2023/01/18 12:46:28;;;;;;;;;;;;;;;;;;4187791;28;19924;-44
2023/01/18 12:48:30;;;;;;;;;;;;;;;;;;4174104;28;20395;-43
2023/01/18 12:50:33;;;;;;;;;;;;;;;;;;4201418;28;19928;-47
2023/01/18 12:52:37;;;;;;;;;;;;;;;;;;4188017;28;20153;-46
2023/01/18 12:54:40;;;;;;;;;;;;;;;;;;4188692;28;19932;-50
2023/01/18 12:56:43;;;;;;;;;;;;;;;;;;4163960;28;20345;-47
2023/01/18 12:58:52;;;;;;;;;;;;;;;;;;4176472;28;20015;-45
2023/01/18 13:00:58;;;;;;;;;;;;;;;;;;4172885;28;19987;-43
2023/01/18 13:02:59;;;;;;;;;;;;;;;;;;4189779;28;19966;-50
2023/01/18 13:05:12;;;;;;;;;;;;;;;;;;4189956;28;19931;-46
2023/01/18 13:07:13;;;;;;;;;;;;;;;;;;4189567;28;20351;-49
2023/01/18 13:09:16;;;;;;;;;;;;;;;;;;4190452;28;19974;-43
2023/01/18 13:11:19;;;;;;;;;;;;;;;;;;4195419;28;19935;-43
2023/01/18 13:13:21;;;;;;;;;;;;;;;;;;4186494;28;19928;-43
2023/01/18 13:15:22;;;;;;;;;;;;;;;;;;4175367;28;19932;-46
2023/01/18 13:17:28;;;;;;;;;;;;;;;;;;4173741;28;19931;-48
2023/01/18 13:19:41;;;;;;;;;;;;;;;;;;4171847;28;19920;-44
2023/01/18 13:21:45;;;;;;;;;;;;;;;;;;4195553;28;19932;-48
2023/01/18 13:23:59;;;;;;;;;;;;;;;;;;4175308;28;19966;-45
2023/01/18 13:26:05;;;;;;;;;;;;;;;;;;4189675;28;20291;-48
2023/01/18 13:28:15;;;;;;;;;;;;;;;;;;4181300;28;19929;-40
2023/01/18 13:30:18;;;;;;;;;;;;;;;;;;4190501;28;19947;-46
2023/01/18 13:32:23;;;;;;;;;;;;;;;;;;4174728;28;19925;-46
2023/01/18 13:34:27;;;;;;;;;;;;;;;;;;4169354;28;19929;-46
2023/01/18 13:36:43;;;;;;;;;;;;;;;;;;4173546;28;20233;-46
2023/01/18 13:38:50;;;;;;;;;;;;;;;;;;4159437;28;19932;-47
2023/01/18 13:40:52;;;;;;;;;;;;;;;;;;4166088;28;19929;-44
2023/01/18 13:42:53;;;;;;;;;;;;;;;;;;4204335;28;20301;-45
2023/01/18 13:45:30;;;;;;;;;;;;;;;;;;4209598;28;19924;-47
2023/01/18 13:47:38;;;;;;;;;;;;;;;;;;4133789;28;20393;-45
2023/01/18 13:49:45;;;;;;;;;;;;;;;;;;4182518;28;20390;-45
2023/01/18 13:51:48;;;;;;;;;;;;;;;;;;4210085;28;19931;-45
2023/01/18 13:53:49;;;;;;;;;;;;;;;;;;4210127;28;19924;-46
2023/01/18 13:55:53;;;;;;;;;;;;;;;;;;4197164;28;19935;-42
2023/01/18 13:57:54;;;;;;;;;;;;;;;;;;4201306;28;20633;-42
2023/01/18 13:59:55;;;;;;;;;;;;;;;;;;4191725;28;19931;-45
2023/01/18 14:02:07;;;;;;;;;;;;;;;;;;4195440;28;19945;-46
2023/01/18 14:04:16;;;;;;;;;;;;;;;;;;4180360;28;20351;-44
2023/01/18 14:06:29;;;;;;;;;;;;;;;;;;4166597;28;19928;-44
2023/01/18 14:08:31;;;;;;;;;;;;;;;;;;4193010;28;20395;-42
2023/01/18 14:10:33;;;;;;;;;;;;;;;;;;4178693;28;20343;-44
2023/01/18 14:12:44;;;;;;;;;;;;;;;;;;4202734;28;20420;-45
2023/01/18 14:14:55;;;;;;;;;;;;;;;;;;4204486;28;19920;-44
2023/01/18 14:17:14;;;;;;;;;;;;;;;;;;4209698;28;19977;-48
2023/01/18 14:19:17;;;;;;;;;;;;;;;;;;4212847;28;19924;-43
2023/01/18 14:21:21;;;;;;;;;;;;;;;;;;4194721;28;20351;-46
2023/01/18 14:23:26;;;;;;;;;;;;;;;;;;4194604;28;20265;-41
2023/01/18 14:25:33;;;;;;;;;;;;;;;;;;4189703;28;19925;-44
2023/01/18 14:27:37;;;;;;;;;;;;;;;;;;4178310;28;19931;-45
2023/01/18 14:29:43;;;;;;;;;;;;;;;;;;4190018;28;19970;-43
2023/01/18 14:31:47;;;;;;;;;;;;;;;;;;4178726;28;19920;-41
2023/01/18 14:33:49;;;;;;;;;;;;;;;;;;4196185;28;19924;-44
2023/01/18 14:35:51;;;;;;;;;;;;;;;;;;4205478;28;19924;-40